Richland, South Carolina
Current Conditions -  °F | °C
As of 10:54 PM on Saturday 24 Jan 2015 (Local Time) from KCEU Reporting Station
Clear Clear  
Wind Chill: 34°   Ceiling: Unl
Heat Index: 41°   Visibility: 10mi
Dew Point: 22°   Wind: 12mph
Humidity: 47%   Direction: 250°WSW
Pressure: 29.87"   Gusts: NA
Location:  34.68°N, 83.03°W
Report Text: KCEU 250354Z AUTO 25010KT 10SM CLR 05/M06 A2987 RMK AO2 SLP116 T00501056
Loading
Personal Weather Stations






























Interactive Weather Map New forecast layout! Learn more

10-Day Weather Forecast

Advertisements
Track Severe Weather on mobile